sensor_id;sensor_type;location;lat;lon;timestamp;P1;durP1;ratioP1;P2;durP2;ratioP2
77944;SDS011;67142;47.404;-1.384;2023-06-22T00:00:40;17.27;;;15.68;;
77944;SDS011;67142;47.404;-1.384;2023-06-22T00:03:07;17.75;;;16.15;;
77944;SDS011;67142;47.404;-1.384;2023-06-22T00:05:33;17.90;;;16.30;;
77944;SDS011;67142;47.404;-1.384;2023-06-22T00:08:02;17.80;;;16.00;;
77944;SDS011;67142;47.404;-1.384;2023-06-22T00:10:28;18.00;;;16.38;;
77944;SDS011;67142;47.404;-1.384;2023-06-22T00:12:54;18.00;;;16.30;;
77944;SDS011;67142;47.404;-1.384;2023-06-22T00:15:20;17.88;;;16.25;;
77944;SDS011;67142;47.404;-1.384;2023-06-22T00:17:46;18.05;;;16.42;;
77944;SDS011;67142;47.404;-1.384;2023-06-22T00:20:12;16.90;;;15.40;;
77944;SDS011;67142;47.404;-1.384;2023-06-22T00:22:39;17.17;;;15.60;;
77944;SDS011;67142;47.404;-1.384;2023-06-22T00:25:08;17.10;;;15.50;;
77944;SDS011;67142;47.404;-1.384;2023-06-22T00:27:34;17.30;;;15.70;;
77944;SDS011;67142;47.404;-1.384;2023-06-22T00:30:00;18.13;;;16.42;;
77944;SDS011;67142;47.404;-1.384;2023-06-22T00:32:26;17.08;;;15.48;;
77944;SDS011;67142;47.404;-1.384;2023-06-22T00:34:53;17.23;;;15.63;;
77944;SDS011;67142;47.404;-1.384;2023-06-22T00:37:19;17.73;;;16.05;;
77944;SDS011;67142;47.404;-1.384;2023-06-22T00:39:47;16.80;;;15.23;;
77944;SDS011;67142;47.404;-1.384;2023-06-22T00:42:13;17.10;;;15.40;;
77944;SDS011;67142;47.404;-1.384;2023-06-22T00:44:39;17.15;;;15.60;;
77944;SDS011;67142;47.404;-1.384;2023-06-22T00:47:06;17.35;;;15.85;;
77944;SDS011;67142;47.404;-1.384;2023-06-22T00:49:32;18.20;;;16.60;;
77944;SDS011;67142;47.404;-1.384;2023-06-22T00:51:58;18.25;;;16.65;;
77944;SDS011;67142;47.404;-1.384;2023-06-22T00:54:24;17.50;;;15.90;;
77944;SDS011;67142;47.404;-1.384;2023-06-22T00:56:51;17.58;;;15.88;;
77944;SDS011;67142;47.404;-1.384;2023-06-22T00:59:21;17.75;;;16.05;;
77944;SDS011;67142;47.404;-1.384;2023-06-22T01:01:47;17.63;;;16.00;;
77944;SDS011;67142;47.404;-1.384;2023-06-22T01:04:13;17.55;;;15.85;;
77944;SDS011;67142;47.404;-1.384;2023-06-22T01:06:41;17.60;;;16.00;;
77944;SDS011;67142;47.404;-1.384;2023-06-22T01:09:11;17.63;;;16.10;;
77944;SDS011;67142;47.404;-1.384;2023-06-22T01:11:45;18.15;;;16.55;;
77944;SDS011;67142;47.404;-1.384;2023-06-22T01:14:23;17.80;;;16.20;;
77944;SDS011;67142;47.404;-1.384;2023-06-22T01:16:49;17.40;;;15.70;;
77944;SDS011;67142;47.404;-1.384;2023-06-22T01:19:25;17.30;;;15.65;;
77944;SDS011;67142;47.404;-1.384;2023-06-22T01:21:54;17.08;;;15.60;;
77944;SDS011;67142;47.404;-1.384;2023-06-22T01:24:26;17.00;;;15.40;;
77944;SDS011;67142;47.404;-1.384;2023-06-22T01:29:39;17.13;;;15.52;;
77944;SDS011;67142;47.404;-1.384;2023-06-22T01:32:08;17.15;;;15.55;;
77944;SDS011;67142;47.404;-1.384;2023-06-22T01:34:34;16.98;;;15.40;;
77944;SDS011;67142;47.404;-1.384;2023-06-22T01:37:01;17.08;;;15.48;;
77944;SDS011;67142;47.404;-1.384;2023-06-22T01:39:27;17.23;;;15.63;;
77944;SDS011;67142;47.404;-1.384;2023-06-22T01:41:54;17.60;;;15.90;;
77944;SDS011;67142;47.404;-1.384;2023-06-22T01:44:21;17.38;;;15.77;;
77944;SDS011;67142;47.404;-1.384;2023-06-22T01:46:47;17.30;;;15.70;;
77944;SDS011;67142;47.404;-1.384;2023-06-22T01:49:14;17.25;;;15.70;;
77944;SDS011;67142;47.404;-1.384;2023-06-22T01:51:41;18.30;;;16.60;;
77944;SDS011;67142;47.404;-1.384;2023-06-22T01:54:07;17.35;;;15.65;;
77944;SDS011;67142;47.404;-1.384;2023-06-22T01:56:33;16.98;;;15.38;;
77944;SDS011;67142;47.404;-1.384;2023-06-22T01:59:04;16.95;;;15.35;;
77944;SDS011;67142;47.404;-1.384;2023-06-22T02:01:33;17.35;;;15.70;;
77944;SDS011;67142;47.404;-1.384;2023-06-22T02:04:03;17.27;;;15.65;;
77944;SDS011;67142;47.404;-1.384;2023-06-22T02:06:37;17.48;;;15.88;;
77944;SDS011;67142;47.404;-1.384;2023-06-22T02:09:11;17.90;;;16.23;;
77944;SDS011;67142;47.404;-1.384;2023-06-22T02:11:40;17.20;;;15.60;;
77944;SDS011;67142;47.404;-1.384;2023-06-22T02:14:06;17.17;;;15.57;;
77944;SDS011;67142;47.404;-1.384;2023-06-22T02:16:33;17.42;;;15.82;;
77944;SDS011;67142;47.404;-1.384;2023-06-22T02:19:00;17.70;;;16.08;;
77944;SDS011;67142;47.404;-1.384;2023-06-22T02:21:28;17.50;;;15.90;;
77944;SDS011;67142;47.404;-1.384;2023-06-22T02:23:54;17.90;;;16.10;;
77944;SDS011;67142;47.404;-1.384;2023-06-22T02:26:20;17.30;;;15.60;;
77944;SDS011;67142;47.404;-1.384;2023-06-22T02:28:46;17.95;;;16.25;;
77944;SDS011;67142;47.404;-1.384;2023-06-22T02:31:12;17.17;;;15.48;;
77944;SDS011;67142;47.404;-1.384;2023-06-22T02:33:38;17.38;;;15.70;;
77944;SDS011;67142;47.404;-1.384;2023-06-22T02:36:04;17.23;;;15.52;;
77944;SDS011;67142;47.404;-1.384;2023-06-22T02:38:34;17.08;;;15.50;;
77944;SDS011;67142;47.404;-1.384;2023-06-22T02:41:01;17.23;;;15.63;;
77944;SDS011;67142;47.404;-1.384;2023-06-22T02:43:27;17.48;;;15.77;;
77944;SDS011;67142;47.404;-1.384;2023-06-22T02:45:53;17.63;;;16.00;;
77944;SDS011;67142;47.404;-1.384;2023-06-22T02:48:19;17.58;;;15.85;;
77944;SDS011;67142;47.404;-1.384;2023-06-22T02:50:45;17.95;;;16.20;;
77944;SDS011;67142;47.404;-1.384;2023-06-22T02:53:11;17.80;;;16.00;;
77944;SDS011;67142;47.404;-1.384;2023-06-22T02:55:37;17.40;;;15.80;;
77944;SDS011;67142;47.404;-1.384;2023-06-22T02:58:05;17.40;;;15.80;;
77944;SDS011;67142;47.404;-1.384;2023-06-22T03:00:31;17.50;;;15.83;;
77944;SDS011;67142;47.404;-1.384;2023-06-22T03:02:57;17.10;;;15.60;;
77944;SDS011;67142;47.404;-1.384;2023-06-22T03:05:23;18.40;;;16.50;;
77944;SDS011;67142;47.404;-1.384;2023-06-22T03:07:49;18.25;;;16.42;;
77944;SDS011;67142;47.404;-1.384;2023-06-22T03:10:16;17.92;;;16.23;;
77944;SDS011;67142;47.404;-1.384;2023-06-22T03:12:42;17.73;;;15.82;;
77944;SDS011;67142;47.404;-1.384;2023-06-22T03:15:09;17.63;;;16.02;;
77944;SDS011;67142;47.404;-1.384;2023-06-22T03:17:36;17.95;;;16.33;;
77944;SDS011;67142;47.404;-1.384;2023-06-22T03:20:04;17.98;;;16.30;;
77944;SDS011;67142;47.404;-1.384;2023-06-22T03:22:41;17.77;;;16.13;;
77944;SDS011;67142;47.404;-1.384;2023-06-22T03:25:08;18.17;;;16.45;;
77944;SDS011;67142;47.404;-1.384;2023-06-22T03:27:41;18.70;;;16.80;;
77944;SDS011;67142;47.404;-1.384;2023-06-22T03:30:08;18.13;;;16.33;;
77944;SDS011;67142;47.404;-1.384;2023-06-22T03:32:34;18.25;;;16.35;;
77944;SDS011;67142;47.404;-1.384;2023-06-22T03:35:01;18.10;;;16.30;;
77944;SDS011;67142;47.404;-1.384;2023-06-22T03:37:27;18.00;;;16.13;;
77944;SDS011;67142;47.404;-1.384;2023-06-22T03:39:54;18.00;;;16.30;;
77944;SDS011;67142;47.404;-1.384;2023-06-22T03:42:20;17.37;;;15.67;;
77944;SDS011;67142;47.404;-1.384;2023-06-22T03:44:46;17.67;;;15.90;;
77944;SDS011;67142;47.404;-1.384;2023-06-22T03:47:12;18.10;;;16.40;;
77944;SDS011;67142;47.404;-1.384;2023-06-22T03:49:39;18.65;;;16.85;;
77944;SDS011;67142;47.404;-1.384;2023-06-22T03:52:05;17.92;;;16.23;;
77944;SDS011;67142;47.404;-1.384;2023-06-22T03:54:31;19.00;;;17.20;;
77944;SDS011;67142;47.404;-1.384;2023-06-22T03:56:57;18.38;;;16.65;;
77944;SDS011;67142;47.404;-1.384;2023-06-22T03:59:24;18.33;;;16.42;;
77944;SDS011;67142;47.404;-1.384;2023-06-22T04:01:50;18.77;;;16.98;;
77944;SDS011;67142;47.404;-1.384;2023-06-22T04:04:19;18.65;;;16.90;;
77944;SDS011;67142;47.404;-1.384;2023-06-22T04:06:45;18.70;;;16.80;;
77944;SDS011;67142;47.404;-1.384;2023-06-22T04:09:11;18.57;;;16.70;;
77944;SDS011;67142;47.404;-1.384;2023-06-22T04:11:37;18.52;;;16.75;;
77944;SDS011;67142;47.404;-1.384;2023-06-22T04:14:03;18.75;;;17.05;;
77944;SDS011;67142;47.404;-1.384;2023-06-22T04:16:29;18.70;;;17.00;;
77944;SDS011;67142;47.404;-1.384;2023-06-22T04:18:55;18.70;;;16.90;;
77944;SDS011;67142;47.404;-1.384;2023-06-22T04:21:21;19.02;;;16.80;;
77944;SDS011;67142;47.404;-1.384;2023-06-22T04:23:47;18.87;;;16.97;;
77944;SDS011;67142;47.404;-1.384;2023-06-22T04:26:13;18.77;;;16.85;;
77944;SDS011;67142;47.404;-1.384;2023-06-22T04:28:39;19.10;;;17.30;;
77944;SDS011;67142;47.404;-1.384;2023-06-22T04:31:05;19.13;;;17.23;;
77944;SDS011;67142;47.404;-1.384;2023-06-22T04:33:32;18.80;;;17.00;;
77944;SDS011;67142;47.404;-1.384;2023-06-22T04:35:58;18.92;;;17.13;;
77944;SDS011;67142;47.404;-1.384;2023-06-22T04:38:29;18.90;;;17.10;;
77944;SDS011;67142;47.404;-1.384;2023-06-22T04:40:58;19.27;;;17.35;;
77944;SDS011;67142;47.404;-1.384;2023-06-22T04:43:26;19.50;;;17.70;;
77944;SDS011;67142;47.404;-1.384;2023-06-22T04:45:58;18.60;;;16.80;;
77944;SDS011;67142;47.404;-1.384;2023-06-22T04:48:29;19.50;;;17.70;;
77944;SDS011;67142;47.404;-1.384;2023-06-22T04:50:58;19.00;;;17.20;;
77944;SDS011;67142;47.404;-1.384;2023-06-22T04:53:28;19.20;;;17.40;;
77944;SDS011;67142;47.404;-1.384;2023-06-22T04:55:54;19.77;;;17.90;;
77944;SDS011;67142;47.404;-1.384;2023-06-22T04:58:21;20.07;;;18.17;;
77944;SDS011;67142;47.404;-1.384;2023-06-22T05:00:47;19.00;;;17.20;;
77944;SDS011;67142;47.404;-1.384;2023-06-22T05:03:16;19.10;;;17.30;;
77944;SDS011;67142;47.404;-1.384;2023-06-22T05:05:43;18.93;;;17.23;;
77944;SDS011;67142;47.404;-1.384;2023-06-22T05:08:09;19.02;;;17.23;;
77944;SDS011;67142;47.404;-1.384;2023-06-22T05:10:35;19.30;;;17.42;;
77944;SDS011;67142;47.404;-1.384;2023-06-22T05:13:01;19.05;;;17.35;;
77944;SDS011;67142;47.404;-1.384;2023-06-22T05:15:27;18.63;;;16.90;;
77944;SDS011;67142;47.404;-1.384;2023-06-22T05:17:55;19.13;;;17.33;;
77944;SDS011;67142;47.404;-1.384;2023-06-22T05:20:23;19.08;;;17.27;;
77944;SDS011;67142;47.404;-1.384;2023-06-22T05:22:49;18.85;;;17.15;;
77944;SDS011;67142;47.404;-1.384;2023-06-22T05:25:15;18.85;;;17.05;;
77944;SDS011;67142;47.404;-1.384;2023-06-22T05:27:41;18.85;;;17.05;;
77944;SDS011;67142;47.404;-1.384;2023-06-22T05:30:09;19.45;;;17.65;;
77944;SDS011;67142;47.404;-1.384;2023-06-22T05:32:36;19.60;;;17.80;;
77944;SDS011;67142;47.404;-1.384;2023-06-22T05:35:03;19.20;;;17.38;;
77944;SDS011;67142;47.404;-1.384;2023-06-22T05:37:29;18.75;;;17.02;;
77944;SDS011;67142;47.404;-1.384;2023-06-22T05:39:55;19.37;;;17.47;;
77944;SDS011;67142;47.404;-1.384;2023-06-22T05:42:22;19.43;;;17.57;;
77944;SDS011;67142;47.404;-1.384;2023-06-22T05:44:50;19.65;;;17.85;;
77944;SDS011;67142;47.404;-1.384;2023-06-22T05:47:16;20.55;;;18.35;;
77944;SDS011;67142;47.404;-1.384;2023-06-22T05:49:42;19.15;;;17.35;;
77944;SDS011;67142;47.404;-1.384;2023-06-22T05:52:08;19.60;;;17.73;;
77944;SDS011;67142;47.404;-1.384;2023-06-22T05:54:34;20.15;;;18.27;;
77944;SDS011;67142;47.404;-1.384;2023-06-22T05:57:00;19.40;;;17.60;;
77944;SDS011;67142;47.404;-1.384;2023-06-22T05:59:27;20.05;;;18.00;;
77944;SDS011;67142;47.404;-1.384;2023-06-22T06:01:53;19.70;;;17.80;;
77944;SDS011;67142;47.404;-1.384;2023-06-22T06:04:19;20.20;;;18.20;;
77944;SDS011;67142;47.404;-1.384;2023-06-22T06:06:45;20.10;;;18.00;;
77944;SDS011;67142;47.404;-1.384;2023-06-22T06:09:12;19.70;;;17.90;;
77944;SDS011;67142;47.404;-1.384;2023-06-22T06:11:38;20.17;;;18.23;;
77944;SDS011;67142;47.404;-1.384;2023-06-22T06:14:04;20.02;;;18.23;;
77944;SDS011;67142;47.404;-1.384;2023-06-22T06:16:31;19.05;;;17.35;;
77944;SDS011;67142;47.404;-1.384;2023-06-22T06:18:57;19.50;;;17.60;;
77944;SDS011;67142;47.404;-1.384;2023-06-22T06:21:23;19.50;;;17.48;;
77944;SDS011;67142;47.404;-1.384;2023-06-22T06:23:49;19.30;;;17.50;;
77944;SDS011;67142;47.404;-1.384;2023-06-22T06:26:15;19.37;;;17.57;;
77944;SDS011;67142;47.404;-1.384;2023-06-22T06:28:42;19.15;;;17.38;;
77944;SDS011;67142;47.404;-1.384;2023-06-22T06:31:08;19.33;;;17.63;;
77944;SDS011;67142;47.404;-1.384;2023-06-22T06:33:35;19.40;;;17.70;;
77944;SDS011;67142;47.404;-1.384;2023-06-22T06:36:01;18.93;;;17.13;;
77944;SDS011;67142;47.404;-1.384;2023-06-22T06:38:29;19.77;;;18.00;;
77944;SDS011;67142;47.404;-1.384;2023-06-22T06:40:55;19.38;;;17.70;;
77944;SDS011;67142;47.404;-1.384;2023-06-22T06:43:21;20.23;;;18.40;;
77944;SDS011;67142;47.404;-1.384;2023-06-22T06:45:47;19.10;;;17.30;;
77944;SDS011;67142;47.404;-1.384;2023-06-22T06:48:13;18.83;;;17.20;;
77944;SDS011;67142;47.404;-1.384;2023-06-22T06:50:39;19.02;;;17.42;;
77944;SDS011;67142;47.404;-1.384;2023-06-22T06:53:05;18.88;;;17.17;;
77944;SDS011;67142;47.404;-1.384;2023-06-22T06:55:31;18.55;;;16.88;;
77944;SDS011;67142;47.404;-1.384;2023-06-22T06:57:58;19.25;;;17.38;;
77944;SDS011;67142;47.404;-1.384;2023-06-22T07:00:25;19.42;;;17.65;;
77944;SDS011;67142;47.404;-1.384;2023-06-22T07:02:51;19.33;;;17.57;;
77944;SDS011;67142;47.404;-1.384;2023-06-22T07:05:17;18.95;;;17.15;;
77944;SDS011;67142;47.404;-1.384;2023-06-22T07:07:43;19.25;;;17.45;;
77944;SDS011;67142;47.404;-1.384;2023-06-22T07:10:09;20.63;;;17.70;;
77944;SDS011;67142;47.404;-1.384;2023-06-22T07:12:35;18.70;;;17.00;;
77944;SDS011;67142;47.404;-1.384;2023-06-22T07:15:05;18.67;;;17.00;;
77944;SDS011;67142;47.404;-1.384;2023-06-22T07:17:34;19.30;;;17.50;;
77944;SDS011;67142;47.404;-1.384;2023-06-22T07:20:01;18.85;;;17.15;;
77944;SDS011;67142;47.404;-1.384;2023-06-22T07:22:28;18.57;;;16.87;;
77944;SDS011;67142;47.404;-1.384;2023-06-22T07:24:54;18.60;;;16.90;;
77944;SDS011;67142;47.404;-1.384;2023-06-22T07:27:21;18.75;;;17.10;;
77944;SDS011;67142;47.404;-1.384;2023-06-22T07:29:47;18.97;;;17.17;;
77944;SDS011;67142;47.404;-1.384;2023-06-22T07:32:13;18.88;;;17.08;;
77944;SDS011;67142;47.404;-1.384;2023-06-22T07:34:39;18.73;;;17.13;;
77944;SDS011;67142;47.404;-1.384;2023-06-22T07:37:06;18.25;;;16.63;;
77944;SDS011;67142;47.404;-1.384;2023-06-22T07:39:32;19.00;;;17.40;;
77944;SDS011;67142;47.404;-1.384;2023-06-22T07:41:58;19.05;;;17.45;;
77944;SDS011;67142;47.404;-1.384;2023-06-22T07:44:24;19.30;;;17.67;;
77944;SDS011;67142;47.404;-1.384;2023-06-22T07:46:50;19.40;;;17.70;;
77944;SDS011;67142;47.404;-1.384;2023-06-22T07:49:16;20.00;;;18.30;;
77944;SDS011;67142;47.404;-1.384;2023-06-22T07:51:43;19.30;;;17.70;;
77944;SDS011;67142;47.404;-1.384;2023-06-22T07:54:09;19.58;;;17.88;;
77944;SDS011;67142;47.404;-1.384;2023-06-22T07:56:36;19.80;;;18.10;;
77944;SDS011;67142;47.404;-1.384;2023-06-22T07:59:02;19.42;;;17.73;;
77944;SDS011;67142;47.404;-1.384;2023-06-22T08:01:28;19.50;;;17.80;;
77944;SDS011;67142;47.404;-1.384;2023-06-22T08:03:54;19.13;;;17.50;;
77944;SDS011;67142;47.404;-1.384;2023-06-22T08:06:21;18.92;;;17.42;;
77944;SDS011;67142;47.404;-1.384;2023-06-22T08:08:47;19.73;;;18.10;;
77944;SDS011;67142;47.404;-1.384;2023-06-22T08:11:29;19.10;;;17.35;;
77944;SDS011;67142;47.404;-1.384;2023-06-22T08:13:55;19.17;;;17.42;;
77944;SDS011;67142;47.404;-1.384;2023-06-22T08:16:23;19.20;;;17.48;;
77944;SDS011;67142;47.404;-1.384;2023-06-22T08:18:49;18.67;;;17.08;;
77944;SDS011;67142;47.404;-1.384;2023-06-22T08:21:15;19.33;;;17.63;;
77944;SDS011;67142;47.404;-1.384;2023-06-22T08:23:42;19.73;;;18.02;;
77944;SDS011;67142;47.404;-1.384;2023-06-22T08:26:08;19.48;;;17.80;;
77944;SDS011;67142;47.404;-1.384;2023-06-22T08:28:33;19.50;;;17.70;;
77944;SDS011;67142;47.404;-1.384;2023-06-22T08:31:00;20.10;;;18.40;;
77944;SDS011;67142;47.404;-1.384;2023-06-22T08:33:26;19.92;;;18.33;;
77944;SDS011;67142;47.404;-1.384;2023-06-22T08:35:55;20.10;;;18.40;;
77944;SDS011;67142;47.404;-1.384;2023-06-22T08:38:21;19.67;;;17.88;;
77944;SDS011;67142;47.404;-1.384;2023-06-22T08:40:47;19.60;;;17.80;;
77944;SDS011;67142;47.404;-1.384;2023-06-22T08:43:13;18.65;;;17.05;;
77944;SDS011;67142;47.404;-1.384;2023-06-22T08:45:40;19.08;;;17.35;;
77944;SDS011;67142;47.404;-1.384;2023-06-22T08:48:06;19.75;;;18.13;;
77944;SDS011;67142;47.404;-1.384;2023-06-22T08:50:32;18.92;;;17.33;;
77944;SDS011;67142;47.404;-1.384;2023-06-22T08:52:58;19.00;;;17.40;;
77944;SDS011;67142;47.404;-1.384;2023-06-22T08:55:24;19.15;;;17.55;;
77944;SDS011;67142;47.404;-1.384;2023-06-22T08:57:50;19.40;;;17.70;;
77944;SDS011;67142;47.404;-1.384;2023-06-22T09:00:16;19.20;;;17.60;;
77944;SDS011;67142;47.404;-1.384;2023-06-22T09:02:44;18.60;;;17.00;;
77944;SDS011;67142;47.404;-1.384;2023-06-22T09:05:10;18.33;;;16.73;;
77944;SDS011;67142;47.404;-1.384;2023-06-22T09:07:36;19.13;;;17.33;;
77944;SDS011;67142;47.404;-1.384;2023-06-22T09:10:02;18.27;;;16.67;;
77944;SDS011;67142;47.404;-1.384;2023-06-22T09:12:29;19.58;;;17.83;;
77944;SDS011;67142;47.404;-1.384;2023-06-22T09:14:56;19.13;;;17.42;;
77944;SDS011;67142;47.404;-1.384;2023-06-22T09:17:22;19.80;;;18.00;;
77944;SDS011;67142;47.404;-1.384;2023-06-22T09:19:48;20.10;;;18.40;;
77944;SDS011;67142;47.404;-1.384;2023-06-22T09:22:14;20.63;;;18.83;;
77944;SDS011;67142;47.404;-1.384;2023-06-22T09:24:40;19.50;;;17.90;;
77944;SDS011;67142;47.404;-1.384;2023-06-22T09:27:06;20.20;;;18.50;;
77944;SDS011;67142;47.404;-1.384;2023-06-22T09:29:32;20.08;;;18.38;;
77944;SDS011;67142;47.404;-1.384;2023-06-22T09:31:59;20.60;;;18.90;;
77944;SDS011;67142;47.404;-1.384;2023-06-22T09:34:25;19.90;;;18.30;;
77944;SDS011;67142;47.404;-1.384;2023-06-22T09:36:51;20.30;;;18.65;;
77944;SDS011;67142;47.404;-1.384;2023-06-22T09:39:18;20.50;;;18.70;;
77944;SDS011;67142;47.404;-1.384;2023-06-22T09:41:44;20.30;;;18.70;;
77944;SDS011;67142;47.404;-1.384;2023-06-22T09:44:10;20.10;;;18.40;;
77944;SDS011;67142;47.404;-1.384;2023-06-22T09:46:36;20.00;;;18.50;;
77944;SDS011;67142;47.404;-1.384;2023-06-22T09:49:02;20.30;;;18.70;;
77944;SDS011;67142;47.404;-1.384;2023-06-22T09:51:28;20.30;;;18.60;;
77944;SDS011;67142;47.404;-1.384;2023-06-22T09:53:54;21.08;;;19.38;;
77944;SDS011;67142;47.404;-1.384;2023-06-22T09:56:20;20.20;;;18.58;;
77944;SDS011;67142;47.404;-1.384;2023-06-22T09:58:46;21.25;;;19.60;;
77944;SDS011;67142;47.404;-1.384;2023-06-22T10:01:15;18.85;;;17.25;;
77944;SDS011;67142;47.404;-1.384;2023-06-22T10:03:41;20.52;;;18.73;;
77944;SDS011;67142;47.404;-1.384;2023-06-22T10:06:07;19.35;;;17.75;;
77944;SDS011;67142;47.404;-1.384;2023-06-22T10:08:34;19.00;;;17.50;;
77944;SDS011;67142;47.404;-1.384;2023-06-22T10:11:00;18.80;;;17.20;;
77944;SDS011;67142;47.404;-1.384;2023-06-22T10:13:27;18.60;;;17.10;;
77944;SDS011;67142;47.404;-1.384;2023-06-22T10:15:53;18.90;;;17.30;;
77944;SDS011;67142;47.404;-1.384;2023-06-22T10:18:19;18.70;;;17.20;;
77944;SDS011;67142;47.404;-1.384;2023-06-22T10:20:47;19.02;;;17.42;;
77944;SDS011;67142;47.404;-1.384;2023-06-22T10:23:13;18.90;;;17.20;;
77944;SDS011;67142;47.404;-1.384;2023-06-22T10:25:39;18.83;;;17.30;;
77944;SDS011;67142;47.404;-1.384;2023-06-22T10:28:05;18.57;;;16.97;;
77944;SDS011;67142;47.404;-1.384;2023-06-22T10:30:31;20.37;;;18.77;;
77944;SDS011;67142;47.404;-1.384;2023-06-22T10:32:57;18.37;;;16.87;;
77944;SDS011;67142;47.404;-1.384;2023-06-22T10:35:23;19.52;;;17.92;;
77944;SDS011;67142;47.404;-1.384;2023-06-22T10:37:49;19.08;;;17.48;;
77944;SDS011;67142;47.404;-1.384;2023-06-22T10:40:16;19.10;;;17.50;;
77944;SDS011;67142;47.404;-1.384;2023-06-22T10:42:43;18.98;;;17.27;;
77944;SDS011;67142;47.404;-1.384;2023-06-22T10:45:10;18.38;;;16.67;;
77944;SDS011;67142;47.404;-1.384;2023-06-22T10:47:36;19.33;;;17.83;;
77944;SDS011;67142;47.404;-1.384;2023-06-22T10:50:02;19.50;;;17.90;;
77944;SDS011;67142;47.404;-1.384;2023-06-22T10:52:28;19.00;;;17.50;;
77944;SDS011;67142;47.404;-1.384;2023-06-22T10:54:54;19.30;;;17.80;;
77944;SDS011;67142;47.404;-1.384;2023-06-22T10:57:21;19.25;;;17.75;;
77944;SDS011;67142;47.404;-1.384;2023-06-22T10:59:47;20.77;;;19.17;;
77944;SDS011;67142;47.404;-1.384;2023-06-22T11:02:13;19.65;;;18.08;;
77944;SDS011;67142;47.404;-1.384;2023-06-22T11:04:39;21.08;;;19.30;;
77944;SDS011;67142;47.404;-1.384;2023-06-22T11:07:05;20.80;;;19.20;;
77944;SDS011;67142;47.404;-1.384;2023-06-22T11:09:31;19.88;;;18.38;;
77944;SDS011;67142;47.404;-1.384;2023-06-22T11:11:57;19.60;;;18.00;;
77944;SDS011;67142;47.404;-1.384;2023-06-22T11:14:24;19.53;;;18.03;;
77944;SDS011;67142;47.404;-1.384;2023-06-22T11:16:50;19.77;;;18.27;;
77944;SDS011;67142;47.404;-1.384;2023-06-22T11:19:16;20.17;;;18.57;;
77944;SDS011;67142;47.404;-1.384;2023-06-22T11:21:42;20.48;;;18.88;;
77944;SDS011;67142;47.404;-1.384;2023-06-22T11:24:08;20.60;;;18.80;;
77944;SDS011;67142;47.404;-1.384;2023-06-22T11:26:34;20.00;;;18.40;;
77944;SDS011;67142;47.404;-1.384;2023-06-22T11:29:00;21.07;;;19.47;;
77944;SDS011;67142;47.404;-1.384;2023-06-22T11:31:30;21.80;;;20.10;;
77944;SDS011;67142;47.404;-1.384;2023-06-22T11:33:56;22.43;;;20.63;;
77944;SDS011;67142;47.404;-1.384;2023-06-22T11:36:22;22.30;;;20.50;;
77944;SDS011;67142;47.404;-1.384;2023-06-22T11:38:48;20.58;;;18.98;;
77944;SDS011;67142;47.404;-1.384;2023-06-22T11:41:14;20.40;;;18.60;;
77944;SDS011;67142;47.404;-1.384;2023-06-22T11:43:40;19.73;;;18.13;;
77944;SDS011;67142;47.404;-1.384;2023-06-22T11:46:06;20.60;;;18.90;;
77944;SDS011;67142;47.404;-1.384;2023-06-22T11:48:32;21.23;;;19.63;;
77944;SDS011;67142;47.404;-1.384;2023-06-22T11:50:58;21.77;;;20.05;;
77944;SDS011;67142;47.404;-1.384;2023-06-22T11:53:25;22.00;;;20.40;;
77944;SDS011;67142;47.404;-1.384;2023-06-22T11:55:52;21.83;;;20.08;;
77944;SDS011;67142;47.404;-1.384;2023-06-22T11:58:19;21.63;;;19.83;;
77944;SDS011;67142;47.404;-1.384;2023-06-22T12:00:45;21.98;;;20.23;;
77944;SDS011;67142;47.404;-1.384;2023-06-22T12:03:11;21.80;;;20.00;;
77944;SDS011;67142;47.404;-1.384;2023-06-22T12:05:37;21.80;;;20.10;;
77944;SDS011;67142;47.404;-1.384;2023-06-22T12:08:03;20.70;;;19.02;;
77944;SDS011;67142;47.404;-1.384;2023-06-22T12:10:30;20.35;;;18.85;;
77944;SDS011;67142;47.404;-1.384;2023-06-22T12:12:56;22.00;;;20.30;;
77944;SDS011;67142;47.404;-1.384;2023-06-22T12:15:23;21.90;;;20.10;;
77944;SDS011;67142;47.404;-1.384;2023-06-22T12:17:49;21.10;;;19.50;;
77944;SDS011;67142;47.404;-1.384;2023-06-22T12:20:15;20.38;;;18.75;;
77944;SDS011;67142;47.404;-1.384;2023-06-22T12:22:41;20.60;;;18.90;;
77944;SDS011;67142;47.404;-1.384;2023-06-22T12:25:08;20.00;;;18.40;;
77944;SDS011;67142;47.404;-1.384;2023-06-22T12:27:34;19.77;;;18.17;;
77944;SDS011;67142;47.404;-1.384;2023-06-22T12:30:00;19.40;;;17.90;;
77944;SDS011;67142;47.404;-1.384;2023-06-22T12:32:27;19.00;;;17.40;;
77944;SDS011;67142;47.404;-1.384;2023-06-22T12:34:53;19.27;;;17.67;;
77944;SDS011;67142;47.404;-1.384;2023-06-22T12:37:19;18.58;;;17.15;;
77944;SDS011;67142;47.404;-1.384;2023-06-22T12:39:45;18.00;;;16.40;;
77944;SDS011;67142;47.404;-1.384;2023-06-22T12:42:11;18.53;;;16.93;;
77944;SDS011;67142;47.404;-1.384;2023-06-22T12:44:37;17.70;;;16.10;;
77944;SDS011;67142;47.404;-1.384;2023-06-22T12:47:05;17.15;;;15.75;;
77944;SDS011;67142;47.404;-1.384;2023-06-22T12:49:31;17.40;;;16.00;;
77944;SDS011;67142;47.404;-1.384;2023-06-22T12:51:57;17.95;;;16.45;;
77944;SDS011;67142;47.404;-1.384;2023-06-22T12:54:23;18.40;;;16.90;;
77944;SDS011;67142;47.404;-1.384;2023-06-22T12:56:52;17.98;;;16.30;;
77944;SDS011;67142;47.404;-1.384;2023-06-22T12:59:18;18.20;;;16.50;;
77944;SDS011;67142;47.404;-1.384;2023-06-22T13:01:44;17.70;;;16.20;;
77944;SDS011;67142;47.404;-1.384;2023-06-22T13:04:11;17.70;;;16.10;;
77944;SDS011;67142;47.404;-1.384;2023-06-22T13:06:39;17.40;;;15.90;;
77944;SDS011;67142;47.404;-1.384;2023-06-22T13:09:05;18.23;;;16.67;;
77944;SDS011;67142;47.404;-1.384;2023-06-22T13:11:31;18.30;;;16.73;;
77944;SDS011;67142;47.404;-1.384;2023-06-22T13:13:57;18.60;;;17.00;;
77944;SDS011;67142;47.404;-1.384;2023-06-22T13:16:23;17.33;;;15.80;;
77944;SDS011;67142;47.404;-1.384;2023-06-22T13:18:49;17.08;;;15.57;;
77944;SDS011;67142;47.404;-1.384;2023-06-22T13:21:16;18.17;;;16.60;;
77944;SDS011;67142;47.404;-1.384;2023-06-22T13:23:42;17.70;;;16.20;;
77944;SDS011;67142;47.404;-1.384;2023-06-22T13:26:08;18.40;;;16.70;;
77944;SDS011;67142;47.404;-1.384;2023-06-22T13:28:34;18.52;;;16.98;;
77944;SDS011;67142;47.404;-1.384;2023-06-22T13:31:00;18.30;;;16.70;;
77944;SDS011;67142;47.404;-1.384;2023-06-22T13:33:26;18.10;;;16.50;;
77944;SDS011;67142;47.404;-1.384;2023-06-22T13:35:52;17.83;;;16.33;;
77944;SDS011;67142;47.404;-1.384;2023-06-22T13:38:18;18.50;;;16.90;;
77944;SDS011;67142;47.404;-1.384;2023-06-22T13:40:44;18.38;;;16.77;;
77944;SDS011;67142;47.404;-1.384;2023-06-22T13:43:10;18.02;;;16.63;;
77944;SDS011;67142;47.404;-1.384;2023-06-22T13:45:36;18.25;;;16.65;;
77944;SDS011;67142;47.404;-1.384;2023-06-22T13:48:02;18.05;;;16.55;;
77944;SDS011;67142;47.404;-1.384;2023-06-22T13:50:28;18.60;;;16.90;;
77944;SDS011;67142;47.404;-1.384;2023-06-22T13:52:55;18.55;;;17.05;;
77944;SDS011;67142;47.404;-1.384;2023-06-22T13:55:21;18.38;;;16.70;;
77944;SDS011;67142;47.404;-1.384;2023-06-22T13:57:48;18.85;;;17.15;;
77944;SDS011;67142;47.404;-1.384;2023-06-22T14:00:14;18.25;;;16.65;;
77944;SDS011;67142;47.404;-1.384;2023-06-22T14:02:40;18.27;;;16.63;;
77944;SDS011;67142;47.404;-1.384;2023-06-22T14:05:07;18.10;;;16.50;;
77944;SDS011;67142;47.404;-1.384;2023-06-22T14:07:33;18.02;;;16.48;;